Time;durP1;ratioP1;P1;durP2;ratioP2;P2;SDS_P1;SDS_P2;PMS_P1;PMS_P2;Temp;Humidity;BMP_temperature;BMP_pressure;BME280_temperature;BME280_humidity;BME280_pressure;Samples;Min_cycle;Max_cycle;Signal;HPM_P1;HPM_P2
2022/08/29 00:01:12;;;;;;;;;;;;;;;;;;5083477;28;19912;-63
2022/08/29 00:03:37;;;;;;;;;;;;;;;;;;5092939;28;20355;-64
2022/08/29 00:06:03;;;;;;;;;;;;;;;;;;5078764;28;19919;-64
2022/08/29 00:08:28;;;;;;;;;;;;;;;;;;5077415;28;19912;-63
2022/08/29 00:10:53;;;;;;;;;;;;;;;;;;5087138;28;20371;-63
2022/08/29 00:13:18;;;;;;;;;;;;;;;;;;5064692;28;20276;-64
2022/08/29 00:15:44;;;;;;;;;;;;;;;;;;5090690;28;19920;-63
2022/08/29 00:18:09;;;;;;;;;;;;;;;;;;5076828;28;19912;-63
2022/08/29 00:20:34;;;;;;;;;;;;;;;;;;5089287;28;20402;-63
2022/08/29 00:22:59;;;;;;;;;;;;;;;;;;5075462;28;20380;-64
2022/08/29 00:25:24;;;;;;;;;;;;;;;;;;5072946;28;19912;-64
2022/08/29 00:27:49;;;;;;;;;;;;;;;;;;5080929;28;20016;-63
2022/08/29 00:30:14;;;;;;;;;;;;;;;;;;5085575;28;20467;-63
2022/08/29 00:32:40;;;;;;;;;;;;;;;;;;5098241;28;19916;-63
2022/08/29 00:35:05;;;;;;;;;;;;;;;;;;5086335;28;19981;-63
2022/08/29 00:37:30;;;;;;;;;;;;;;;;;;5085696;28;20315;-63
2022/08/29 00:39:56;;;;;;;;;;;;;;;;;;5088094;28;19923;-63
2022/08/29 00:42:21;;;;;;;;;;;;;;;;;;5088936;28;19956;-63
2022/08/29 00:44:46;;;;;;;;;;;;;;;;;;5065745;28;19919;-64
2022/08/29 00:47:11;;;;;;;;;;;;;;;;;;5095909;28;19912;-64
2022/08/29 00:49:38;;;;;;;;;;;;;;;;;;5077781;28;19916;-64
2022/08/29 00:52:03;;;;;;;;;;;;;;;;;;5085910;28;20001;-64
2022/08/29 00:54:28;;;;;;;;;;;;;;;;;;5068025;28;19963;-64
2022/08/29 00:56:53;;;;;;;;;;;;;;;;;;5087315;28;20375;-64
2022/08/29 00:59:18;;;;;;;;;;;;;;;;;;5058085;28;19912;-64
2022/08/29 01:01:44;;;;;;;;;;;;;;;;;;5066454;28;20290;-64
2022/08/29 01:04:09;;;;;;;;;;;;;;;;;;5082249;28;20381;-63
2022/08/29 01:06:34;;;;;;;;;;;;;;;;;;5081542;28;20283;-63
2022/08/29 01:08:59;;;;;;;;;;;;;;;;;;5066006;28;20526;-63
2022/08/29 01:14:08;;;;;;;;;;;;;;;;;;5084099;28;19919;-64
2022/08/29 01:16:35;;;;;;;;;;;;;;;;;;5101597;28;19916;-63
2022/08/29 01:19:01;;;;;;;;;;;;;;;;;;5079545;28;19912;-63
2022/08/29 01:21:26;;;;;;;;;;;;;;;;;;5059806;28;19935;-63
2022/08/29 01:23:51;;;;;;;;;;;;;;;;;;5063693;28;20284;-63
2022/08/29 01:26:16;;;;;;;;;;;;;;;;;;5055222;28;20003;-63
2022/08/29 01:28:41;;;;;;;;;;;;;;;;;;5074484;28;19912;-63
2022/08/29 01:31:06;;;;;;;;;;;;;;;;;;5083452;28;19920;-63
2022/08/29 01:33:31;;;;;;;;;;;;;;;;;;5089922;28;19912;-63
2022/08/29 01:35:57;;;;;;;;;;;;;;;;;;5090253;28;19965;-63
2022/08/29 01:38:28;;;;;;;;;;;;;;;;;;5088594;28;19919;-63
2022/08/29 01:40:54;;;;;;;;;;;;;;;;;;5092448;28;19912;-63
2022/08/29 01:43:19;;;;;;;;;;;;;;;;;;5082660;28;20031;-63
2022/08/29 01:45:44;;;;;;;;;;;;;;;;;;5096896;28;20436;-63
2022/08/29 01:48:09;;;;;;;;;;;;;;;;;;5087794;28;19916;-63
2022/08/29 01:50:35;;;;;;;;;;;;;;;;;;5087980;28;20007;-63
2022/08/29 01:53:00;;;;;;;;;;;;;;;;;;5083310;28;19951;-64
2022/08/29 01:55:25;;;;;;;;;;;;;;;;;;5092480;28;19923;-61
2022/08/29 01:57:50;;;;;;;;;;;;;;;;;;5083896;28;19916;-64
2022/08/29 02:00:16;;;;;;;;;;;;;;;;;;5085499;28;19962;-64
2022/08/29 02:02:42;;;;;;;;;;;;;;;;;;5082414;28;19912;-64
2022/08/29 02:05:07;;;;;;;;;;;;;;;;;;5088082;28;19920;-64
2022/08/29 02:07:33;;;;;;;;;;;;;;;;;;5070178;28;19912;-64
2022/08/29 02:09:58;;;;;;;;;;;;;;;;;;5075207;28;19919;-64
2022/08/29 02:12:25;;;;;;;;;;;;;;;;;;5083673;28;19912;-63
2022/08/29 02:14:50;;;;;;;;;;;;;;;;;;5083184;28;19924;-63
2022/08/29 02:17:15;;;;;;;;;;;;;;;;;;5088776;28;19927;-63
2022/08/29 02:19:40;;;;;;;;;;;;;;;;;;5093555;28;19974;-63
2022/08/29 02:22:05;;;;;;;;;;;;;;;;;;5085990;28;19957;-64
2022/08/29 02:24:30;;;;;;;;;;;;;;;;;;5075539;28;19923;-63
2022/08/29 02:26:56;;;;;;;;;;;;;;;;;;5059410;28;20029;-63
2022/08/29 02:29:21;;;;;;;;;;;;;;;;;;5065324;28;19912;-63
2022/08/29 02:31:47;;;;;;;;;;;;;;;;;;5094328;28;19919;-63
2022/08/29 02:34:12;;;;;;;;;;;;;;;;;;5064276;28;19919;-63
2022/08/29 02:36:37;;;;;;;;;;;;;;;;;;5077510;28;19983;-63
2022/08/29 02:39:02;;;;;;;;;;;;;;;;;;5078839;28;19913;-63
2022/08/29 02:41:27;;;;;;;;;;;;;;;;;;5082025;28;20352;-63
2022/08/29 02:43:53;;;;;;;;;;;;;;;;;;5080640;28;20394;-63
2022/08/29 02:46:18;;;;;;;;;;;;;;;;;;5089275;28;19934;-62
2022/08/29 02:48:43;;;;;;;;;;;;;;;;;;5088852;28;19913;-63
2022/08/29 02:51:09;;;;;;;;;;;;;;;;;;5054362;28;19913;-63
2022/08/29 02:53:34;;;;;;;;;;;;;;;;;;5072445;28;19957;-63
2022/08/29 02:55:59;;;;;;;;;;;;;;;;;;5066581;28;19987;-63
2022/08/29 02:58:24;;;;;;;;;;;;;;;;;;5056202;28;19912;-63
2022/08/29 03:00:49;;;;;;;;;;;;;;;;;;5083237;28;19923;-62
2022/08/29 03:03:14;;;;;;;;;;;;;;;;;;5080127;28;20288;-63
2022/08/29 03:05:40;;;;;;;;;;;;;;;;;;5075670;28;19916;-63
2022/08/29 03:08:05;;;;;;;;;;;;;;;;;;5073967;28;19908;-63
2022/08/29 03:10:30;;;;;;;;;;;;;;;;;;5076232;28;19962;-63
2022/08/29 03:12:55;;;;;;;;;;;;;;;;;;5062916;28;20346;-63
2022/08/29 03:15:20;;;;;;;;;;;;;;;;;;5085954;28;20384;-63
2022/08/29 03:17:46;;;;;;;;;;;;;;;;;;5083510;28;19966;-63
2022/08/29 03:20:11;;;;;;;;;;;;;;;;;;5063939;28;19912;-63
2022/08/29 03:22:36;;;;;;;;;;;;;;;;;;5074265;28;19912;-63
2022/08/29 03:25:01;;;;;;;;;;;;;;;;;;5077159;28;19981;-63
2022/08/29 03:27:27;;;;;;;;;;;;;;;;;;5085960;28;19912;-62
2022/08/29 03:29:52;;;;;;;;;;;;;;;;;;5076765;28;19913;-63
2022/08/29 03:32:17;;;;;;;;;;;;;;;;;;5090077;28;19912;-62
2022/08/29 03:34:42;;;;;;;;;;;;;;;;;;5061740;28;19966;-63
2022/08/29 03:37:07;;;;;;;;;;;;;;;;;;5072670;28;20046;-63
2022/08/29 03:39:33;;;;;;;;;;;;;;;;;;5084702;28;19920;-63
2022/08/29 03:41:58;;;;;;;;;;;;;;;;;;5076539;28;19951;-63
2022/08/29 03:44:23;;;;;;;;;;;;;;;;;;5090644;28;19912;-63
2022/08/29 03:46:48;;;;;;;;;;;;;;;;;;5088264;28;19920;-62
2022/08/29 03:49:14;;;;;;;;;;;;;;;;;;5084812;28;19979;-63
2022/08/29 03:51:39;;;;;;;;;;;;;;;;;;5055432;28;20450;-63
2022/08/29 03:54:04;;;;;;;;;;;;;;;;;;5081281;28;19915;-63
2022/08/29 03:56:29;;;;;;;;;;;;;;;;;;5077904;28;19916;-63
2022/08/29 03:58:55;;;;;;;;;;;;;;;;;;5065315;28;20404;-63
2022/08/29 04:01:21;;;;;;;;;;;;;;;;;;5058122;28;20405;-63
2022/08/29 04:03:46;;;;;;;;;;;;;;;;;;5086917;28;19927;-63
2022/08/29 04:06:11;;;;;;;;;;;;;;;;;;5082886;28;19912;-63
2022/08/29 04:08:37;;;;;;;;;;;;;;;;;;5077150;28;19923;-65
2022/08/29 04:11:02;;;;;;;;;;;;;;;;;;5083204;28;20294;-63
2022/08/29 04:13:27;;;;;;;;;;;;;;;;;;5082114;28;19912;-63
2022/08/29 04:15:52;;;;;;;;;;;;;;;;;;5089037;28;19920;-63
2022/08/29 04:18:18;;;;;;;;;;;;;;;;;;5075706;28;19995;-64
2022/08/29 04:20:43;;;;;;;;;;;;;;;;;;5081641;28;19912;-64
2022/08/29 04:23:11;;;;;;;;;;;;;;;;;;5077716;28;19916;-64
2022/08/29 04:25:36;;;;;;;;;;;;;;;;;;5083714;28;20381;-64
2022/08/29 04:28:01;;;;;;;;;;;;;;;;;;5071987;28;19982;-64
2022/08/29 04:30:27;;;;;;;;;;;;;;;;;;5078916;28;19996;-63
2022/08/29 04:32:52;;;;;;;;;;;;;;;;;;5068403;28;19919;-67
2022/08/29 04:35:17;;;;;;;;;;;;;;;;;;5087753;28;20185;-67
2022/08/29 04:37:42;;;;;;;;;;;;;;;;;;5064911;28;19917;-69
2022/08/29 04:40:08;;;;;;;;;;;;;;;;;;5071077;28;19915;-68
2022/08/29 04:42:33;;;;;;;;;;;;;;;;;;5066990;28;19917;-68
2022/08/29 04:44:58;;;;;;;;;;;;;;;;;;5070190;28;19923;-68
2022/08/29 04:47:23;;;;;;;;;;;;;;;;;;5083505;28;19958;-67
2022/08/29 04:49:48;;;;;;;;;;;;;;;;;;5089612;28;19962;-66
2022/08/29 04:52:13;;;;;;;;;;;;;;;;;;5063073;28;19913;-68
2022/08/29 04:54:38;;;;;;;;;;;;;;;;;;5056268;28;20009;-68
2022/08/29 04:57:04;;;;;;;;;;;;;;;;;;5063247;28;19916;-68
2022/08/29 04:59:29;;;;;;;;;;;;;;;;;;5063950;28;20456;-67
2022/08/29 05:01:54;;;;;;;;;;;;;;;;;;5084331;28;20275;-68
2022/08/29 05:04:19;;;;;;;;;;;;;;;;;;5062009;28;19916;-67
2022/08/29 05:06:44;;;;;;;;;;;;;;;;;;5087714;28;19912;-68
2022/08/29 05:09:09;;;;;;;;;;;;;;;;;;5061131;28;19927;-67
2022/08/29 05:11:34;;;;;;;;;;;;;;;;;;5077180;28;19916;-68
2022/08/29 05:14:00;;;;;;;;;;;;;;;;;;5081801;28;19915;-67
2022/08/29 05:16:25;;;;;;;;;;;;;;;;;;5090809;28;19921;-68
2022/08/29 05:18:51;;;;;;;;;;;;;;;;;;5099924;28;19912;-67
2022/08/29 05:21:16;;;;;;;;;;;;;;;;;;5078651;28;19916;-68
2022/08/29 05:23:41;;;;;;;;;;;;;;;;;;5075071;28;19912;-67
2022/08/29 05:26:06;;;;;;;;;;;;;;;;;;5056627;28;20017;-68
2022/08/29 05:28:31;;;;;;;;;;;;;;;;;;5074199;28;19913;-67
2022/08/29 05:30:56;;;;;;;;;;;;;;;;;;5057098;28;20015;-68
2022/08/29 05:33:22;;;;;;;;;;;;;;;;;;5079347;28;19912;-67
2022/08/29 05:35:47;;;;;;;;;;;;;;;;;;5059091;28;20326;-66
2022/08/29 05:38:12;;;;;;;;;;;;;;;;;;5094138;28;19908;-66
2022/08/29 05:40:37;;;;;;;;;;;;;;;;;;5069087;28;19963;-67
2022/08/29 05:43:02;;;;;;;;;;;;;;;;;;5068111;28;19908;-67
2022/08/29 05:45:27;;;;;;;;;;;;;;;;;;5079935;28;19912;-66
2022/08/29 05:47:52;;;;;;;;;;;;;;;;;;5073887;28;19915;-67
2022/08/29 05:50:18;;;;;;;;;;;;;;;;;;5089290;28;19921;-67
2022/08/29 05:52:43;;;;;;;;;;;;;;;;;;5079083;28;19913;-67
2022/08/29 05:55:08;;;;;;;;;;;;;;;;;;5093985;28;20415;-67
2022/08/29 05:57:33;;;;;;;;;;;;;;;;;;5090556;28;19916;-67
2022/08/29 05:59:58;;;;;;;;;;;;;;;;;;5074165;28;19921;-67
2022/08/29 06:02:24;;;;;;;;;;;;;;;;;;5084781;28;19916;-67
2022/08/29 06:04:49;;;;;;;;;;;;;;;;;;5057768;28;19920;-67
2022/08/29 06:07:14;;;;;;;;;;;;;;;;;;5093609;28;19916;-68
2022/08/29 06:09:39;;;;;;;;;;;;;;;;;;5066672;28;19946;-67
2022/08/29 06:12:04;;;;;;;;;;;;;;;;;;5054658;28;20387;-68
2022/08/29 06:14:29;;;;;;;;;;;;;;;;;;5082997;28;19916;-67
2022/08/29 06:16:55;;;;;;;;;;;;;;;;;;5061952;28;20046;-66
2022/08/29 06:19:20;;;;;;;;;;;;;;;;;;5056389;28;19921;-66
2022/08/29 06:21:46;;;;;;;;;;;;;;;;;;5039305;28;19944;-67
2022/08/29 06:24:11;;;;;;;;;;;;;;;;;;5052951;28;19959;-67
2022/08/29 06:26:36;;;;;;;;;;;;;;;;;;5036410;28;19924;-67
2022/08/29 06:29:01;;;;;;;;;;;;;;;;;;5035305;28;20361;-68
2022/08/29 06:31:27;;;;;;;;;;;;;;;;;;5047618;28;20543;-67
2022/08/29 06:33:53;;;;;;;;;;;;;;;;;;5057130;28;20633;-68
2022/08/29 06:36:18;;;;;;;;;;;;;;;;;;5052251;28;20003;-67
2022/08/29 06:38:43;;;;;;;;;;;;;;;;;;5037271;28;19913;-67
2022/08/29 06:41:08;;;;;;;;;;;;;;;;;;5042836;28;19965;-67
2022/08/29 06:43:33;;;;;;;;;;;;;;;;;;5051598;28;20027;-67
2022/08/29 06:45:58;;;;;;;;;;;;;;;;;;5035201;28;19913;-67
2022/08/29 06:48:24;;;;;;;;;;;;;;;;;;5040815;28;19921;-67
2022/08/29 06:50:49;;;;;;;;;;;;;;;;;;5064953;28;20403;-67
2022/08/29 06:53:14;;;;;;;;;;;;;;;;;;5064379;28;19912;-67
2022/08/29 06:55:39;;;;;;;;;;;;;;;;;;5052463;28;19920;-67
2022/08/29 06:58:04;;;;;;;;;;;;;;;;;;5061531;28;20308;-68
2022/08/29 07:00:30;;;;;;;;;;;;;;;;;;5035086;28;20050;-67
2022/08/29 07:02:55;;;;;;;;;;;;;;;;;;5058802;28;19919;-67
2022/08/29 07:05:20;;;;;;;;;;;;;;;;;;5046830;28;19916;-67
2022/08/29 07:07:45;;;;;;;;;;;;;;;;;;5051744;28;20369;-67
2022/08/29 07:10:13;;;;;;;;;;;;;;;;;;5051833;28;19917;-67
2022/08/29 07:12:38;;;;;;;;;;;;;;;;;;5067917;28;20029;-67
2022/08/29 07:15:03;;;;;;;;;;;;;;;;;;5058408;28;19952;-67
2022/08/29 07:17:28;;;;;;;;;;;;;;;;;;5057761;28;19935;-67
2022/08/29 07:19:55;;;;;;;;;;;;;;;;;;5065734;28;20205;-67
2022/08/29 07:22:20;;;;;;;;;;;;;;;;;;5054976;28;19919;-68
2022/08/29 07:24:45;;;;;;;;;;;;;;;;;;5041878;28;19913;-67
2022/08/29 07:27:11;;;;;;;;;;;;;;;;;;5051725;28;19920;-67
2022/08/29 07:29:36;;;;;;;;;;;;;;;;;;5059236;28;19977;-66
2022/08/29 07:32:01;;;;;;;;;;;;;;;;;;5041449;28;19912;-67
2022/08/29 07:34:26;;;;;;;;;;;;;;;;;;5049164;28;20311;-68
2022/08/29 07:36:51;;;;;;;;;;;;;;;;;;5059439;28;19917;-68
2022/08/29 07:39:16;;;;;;;;;;;;;;;;;;5064902;28;19913;-68
2022/08/29 07:41:42;;;;;;;;;;;;;;;;;;5043383;28;20384;-67
2022/08/29 07:44:07;;;;;;;;;;;;;;;;;;5042380;28;19913;-67
2022/08/29 07:46:32;;;;;;;;;;;;;;;;;;5069370;28;19913;-67
2022/08/29 07:48:57;;;;;;;;;;;;;;;;;;5046684;28;20002;-66
2022/08/29 07:51:22;;;;;;;;;;;;;;;;;;5041730;28;19962;-66
2022/08/29 07:53:48;;;;;;;;;;;;;;;;;;5043080;28;19952;-69
2022/08/29 07:56:13;;;;;;;;;;;;;;;;;;5061225;28;20395;-66
2022/08/29 07:58:38;;;;;;;;;;;;;;;;;;5065203;28;19966;-67
2022/08/29 08:01:03;;;;;;;;;;;;;;;;;;5037815;28;20369;-68
2022/08/29 08:03:28;;;;;;;;;;;;;;;;;;5058643;28;20498;-67
2022/08/29 08:05:54;;;;;;;;;;;;;;;;;;5064218;28;19913;-67
2022/08/29 08:08:19;;;;;;;;;;;;;;;;;;5037550;28;19916;-66
2022/08/29 08:10:44;;;;;;;;;;;;;;;;;;5041665;28;19913;-67
2022/08/29 08:13:09;;;;;;;;;;;;;;;;;;5060839;28;19922;-66
2022/08/29 08:15:34;;;;;;;;;;;;;;;;;;5059726;28;19924;-66
2022/08/29 08:18:00;;;;;;;;;;;;;;;;;;5069128;28;19916;-67
2022/08/29 08:20:25;;;;;;;;;;;;;;;;;;5088277;28;19955;-67
2022/08/29 08:22:50;;;;;;;;;;;;;;;;;;5092230;28;20358;-67
2022/08/29 08:25:15;;;;;;;;;;;;;;;;;;5069553;28;19923;-67
2022/08/29 08:27:40;;;;;;;;;;;;;;;;;;5082354;28;19927;-68
2022/08/29 08:30:05;;;;;;;;;;;;;;;;;;5062406;28;20014;-66
2022/08/29 08:32:30;;;;;;;;;;;;;;;;;;5062928;28;19920;-66
2022/08/29 08:34:56;;;;;;;;;;;;;;;;;;5066405;28;19923;-67
2022/08/29 08:37:21;;;;;;;;;;;;;;;;;;5084832;28;19978;-67
2022/08/29 08:39:46;;;;;;;;;;;;;;;;;;5063936;28;19917;-65
2022/08/29 08:42:12;;;;;;;;;;;;;;;;;;5082269;28;19916;-67
2022/08/29 08:44:38;;;;;;;;;;;;;;;;;;5069276;28;20379;-66
2022/08/29 08:47:04;;;;;;;;;;;;;;;;;;5077198;28;19912;-67
2022/08/29 08:49:29;;;;;;;;;;;;;;;;;;5070713;28;19942;-66
2022/08/29 08:51:54;;;;;;;;;;;;;;;;;;5084580;28;20021;-67
2022/08/29 08:54:19;;;;;;;;;;;;;;;;;;5080404;28;19961;-66
2022/08/29 08:56:45;;;;;;;;;;;;;;;;;;5088420;28;19931;-67
2022/08/29 08:59:12;;;;;;;;;;;;;;;;;;5074273;28;19916;-67
2022/08/29 09:01:37;;;;;;;;;;;;;;;;;;5081012;28;19912;-67
2022/08/29 09:04:03;;;;;;;;;;;;;;;;;;5075119;28;20364;-67
2022/08/29 09:06:28;;;;;;;;;;;;;;;;;;5077001;28;19956;-67
2022/08/29 09:08:53;;;;;;;;;;;;;;;;;;5073737;28;19912;-67
2022/08/29 09:11:18;;;;;;;;;;;;;;;;;;5083438;28;20567;-67
2022/08/29 09:13:45;;;;;;;;;;;;;;;;;;5076821;28;20990;-67
2022/08/29 09:16:10;;;;;;;;;;;;;;;;;;5075007;28;19989;-67
2022/08/29 09:18:35;;;;;;;;;;;;;;;;;;5078211;28;20003;-67
2022/08/29 09:21:00;;;;;;;;;;;;;;;;;;5062236;28;20545;-67
2022/08/29 09:23:27;;;;;;;;;;;;;;;;;;5090405;28;20058;-67
2022/08/29 09:25:52;;;;;;;;;;;;;;;;;;5087773;28;19912;-67
2022/08/29 09:28:17;;;;;;;;;;;;;;;;;;5068700;28;20370;-67
2022/08/29 09:30:42;;;;;;;;;;;;;;;;;;5075215;28;19994;-67
2022/08/29 09:33:07;;;;;;;;;;;;;;;;;;5069113;28;19908;-67
2022/08/29 09:35:33;;;;;;;;;;;;;;;;;;5066255;28;19995;-67
2022/08/29 09:37:58;;;;;;;;;;;;;;;;;;5070940;28;19916;-67
2022/08/29 09:40:23;;;;;;;;;;;;;;;;;;5092803;28;19912;-67
2022/08/29 09:42:48;;;;;;;;;;;;;;;;;;5092185;28;19960;-67
2022/08/29 09:45:13;;;;;;;;;;;;;;;;;;5094169;28;20001;-67
2022/08/29 09:47:38;;;;;;;;;;;;;;;;;;5103374;28;19939;-67
2022/08/29 09:50:04;;;;;;;;;;;;;;;;;;5081719;28;19919;-67
2022/08/29 09:52:29;;;;;;;;;;;;;;;;;;5094514;28;19957;-67
2022/08/29 09:54:54;;;;;;;;;;;;;;;;;;5097781;28;20249;-67
2022/08/29 09:57:19;;;;;;;;;;;;;;;;;;5062157;28;19939;-64
2022/08/29 09:59:44;;;;;;;;;;;;;;;;;;5085827;28;19919;-67
2022/08/29 10:02:10;;;;;;;;;;;;;;;;;;5078079;28;19917;-67
2022/08/29 10:04:35;;;;;;;;;;;;;;;;;;5086816;28;20442;-68
2022/08/29 10:07:00;;;;;;;;;;;;;;;;;;5081853;28;19920;-64
2022/08/29 10:09:25;;;;;;;;;;;;;;;;;;5076347;28;19923;-65
2022/08/29 10:11:51;;;;;;;;;;;;;;;;;;5085271;28;19923;-67
2022/08/29 10:14:17;;;;;;;;;;;;;;;;;;5081780;28;19978;-66
2022/08/29 10:16:42;;;;;;;;;;;;;;;;;;5064430;28;19923;-69
2022/08/29 10:19:07;;;;;;;;;;;;;;;;;;5077273;28;19919;-67
2022/08/29 10:21:32;;;;;;;;;;;;;;;;;;5055590;28;19913;-67
2022/08/29 10:23:58;;;;;;;;;;;;;;;;;;5078643;28;19944;-66
2022/08/29 10:26:23;;;;;;;;;;;;;;;;;;5084065;28;20003;-68
2022/08/29 10:28:49;;;;;;;;;;;;;;;;;;5054645;28;20464;-66
2022/08/29 10:31:14;;;;;;;;;;;;;;;;;;5059096;28;19916;-67
2022/08/29 10:33:40;;;;;;;;;;;;;;;;;;5058729;28;19912;-67
2022/08/29 10:36:05;;;;;;;;;;;;;;;;;;5081741;28;20502;-67
2022/08/29 10:38:30;;;;;;;;;;;;;;;;;;5074768;28;19916;-67
2022/08/29 10:40:56;;;;;;;;;;;;;;;;;;5062770;28;19969;-68
2022/08/29 10:43:21;;;;;;;;;;;;;;;;;;5087748;28;19969;-68
2022/08/29 10:45:46;;;;;;;;;;;;;;;;;;5085376;28;20333;-69
2022/08/29 10:48:12;;;;;;;;;;;;;;;;;;5077043;28;19913;-67
2022/08/29 10:50:38;;;;;;;;;;;;;;;;;;5060373;28;20600;-68
2022/08/29 10:53:03;;;;;;;;;;;;;;;;;;5063428;28;20014;-68
2022/08/29 10:55:28;;;;;;;;;;;;;;;;;;5061145;28;19921;-65
2022/08/29 10:57:53;;;;;;;;;;;;;;;;;;5083337;28;19917;-67
2022/08/29 11:00:18;;;;;;;;;;;;;;;;;;5084782;28;19912;-65
2022/08/29 11:02:43;;;;;;;;;;;;;;;;;;5067477;28;19918;-67
2022/08/29 11:05:09;;;;;;;;;;;;;;;;;;5081839;28;19999;-67
2022/08/29 11:07:34;;;;;;;;;;;;;;;;;;5077768;28;19912;-68
2022/08/29 11:09:59;;;;;;;;;;;;;;;;;;5080882;28;19959;-67
2022/08/29 11:12:24;;;;;;;;;;;;;;;;;;5064528;28;19915;-67
2022/08/29 11:14:51;;;;;;;;;;;;;;;;;;5077827;28;19928;-67
2022/08/29 11:17:16;;;;;;;;;;;;;;;;;;5082413;28;19922;-68
2022/08/29 11:19:41;;;;;;;;;;;;;;;;;;5082934;28;19920;-68
2022/08/29 11:22:06;;;;;;;;;;;;;;;;;;5063736;28;19920;-68
2022/08/29 11:24:32;;;;;;;;;;;;;;;;;;5072395;28;19912;-68
2022/08/29 11:26:57;;;;;;;;;;;;;;;;;;5094985;28;20355;-68
2022/08/29 11:29:23;;;;;;;;;;;;;;;;;;5080745;28;19909;-68
2022/08/29 11:31:49;;;;;;;;;;;;;;;;;;5071866;28;19923;-67
2022/08/29 11:34:14;;;;;;;;;;;;;;;;;;5081505;28;20238;-69
2022/08/29 11:36:39;;;;;;;;;;;;;;;;;;5080194;28;20038;-69
2022/08/29 11:39:04;;;;;;;;;;;;;;;;;;5080943;28;19908;-69
2022/08/29 11:41:30;;;;;;;;;;;;;;;;;;5078342;28;20129;-69
2022/08/29 11:43:55;;;;;;;;;;;;;;;;;;5058846;28;20000;-68
2022/08/29 11:46:20;;;;;;;;;;;;;;;;;;5076924;28;19912;-65
2022/08/29 11:48:46;;;;;;;;;;;;;;;;;;5078494;28;19917;-68
2022/08/29 11:51:11;;;;;;;;;;;;;;;;;;5079850;28;19921;-68
2022/08/29 11:53:36;;;;;;;;;;;;;;;;;;5089245;28;19912;-67
2022/08/29 11:56:01;;;;;;;;;;;;;;;;;;5084858;28;19916;-68
2022/08/29 11:58:26;;;;;;;;;;;;;;;;;;5088028;28;20327;-68
2022/08/29 12:00:52;;;;;;;;;;;;;;;;;;5077177;28;19920;-68
2022/08/29 12:03:17;;;;;;;;;;;;;;;;;;5076752;28;20516;-65
2022/08/29 12:05:42;;;;;;;;;;;;;;;;;;5082291;28;19913;-66
2022/08/29 12:08:07;;;;;;;;;;;;;;;;;;5083275;28;19982;-66
2022/08/29 12:10:33;;;;;;;;;;;;;;;;;;5056823;28;19912;-66
2022/08/29 12:12:58;;;;;;;;;;;;;;;;;;5080661;28;19950;-63
2022/08/29 12:15:23;;;;;;;;;;;;;;;;;;5081851;28;19920;-66
2022/08/29 12:17:49;;;;;;;;;;;;;;;;;;5078592;28;19931;-64
2022/08/29 12:20:14;;;;;;;;;;;;;;;;;;5083241;28;19913;-69
2022/08/29 12:22:39;;;;;;;;;;;;;;;;;;5082858;28;19920;-68
2022/08/29 12:25:04;;;;;;;;;;;;;;;;;;5084450;28;19918;-68
2022/08/29 12:27:29;;;;;;;;;;;;;;;;;;5082816;28;19912;-67
2022/08/29 12:29:55;;;;;;;;;;;;;;;;;;5083213;28;19960;-68
2022/08/29 12:32:20;;;;;;;;;;;;;;;;;;5079123;28;19955;-66
2022/08/29 12:34:45;;;;;;;;;;;;;;;;;;5082542;28;19912;-66
2022/08/29 12:37:10;;;;;;;;;;;;;;;;;;5082762;28;20372;-64
2022/08/29 12:39:35;;;;;;;;;;;;;;;;;;5083637;28;20323;-65
2022/08/29 12:42:01;;;;;;;;;;;;;;;;;;5090876;28;20006;-66
2022/08/29 12:44:26;;;;;;;;;;;;;;;;;;5076715;28;20006;-66
2022/08/29 12:46:51;;;;;;;;;;;;;;;;;;5082371;28;19920;-66
2022/08/29 12:49:16;;;;;;;;;;;;;;;;;;5078294;28;19913;-68
2022/08/29 12:51:41;;;;;;;;;;;;;;;;;;5080462;28;20295;-67
2022/08/29 12:54:06;;;;;;;;;;;;;;;;;;5093514;28;20280;-68
2022/08/29 12:56:31;;;;;;;;;;;;;;;;;;5083927;28;20292;-66
2022/08/29 12:58:57;;;;;;;;;;;;;;;;;;5088683;28;19912;-66
2022/08/29 13:01:22;;;;;;;;;;;;;;;;;;5077768;28;19912;-66
2022/08/29 13:03:47;;;;;;;;;;;;;;;;;;5075498;28;19918;-66
2022/08/29 13:06:12;;;;;;;;;;;;;;;;;;5085382;28;19912;-62
2022/08/29 13:08:37;;;;;;;;;;;;;;;;;;5075062;28;19912;-66
2022/08/29 13:11:03;;;;;;;;;;;;;;;;;;5063113;28;19959;-66
2022/08/29 13:13:28;;;;;;;;;;;;;;;;;;5066470;28;19929;-66
2022/08/29 13:15:53;;;;;;;;;;;;;;;;;;5084109;28;19966;-66
2022/08/29 13:18:19;;;;;;;;;;;;;;;;;;5080408;28;19925;-65
2022/08/29 13:20:44;;;;;;;;;;;;;;;;;;5063220;28;20520;-66
2022/08/29 13:23:09;;;;;;;;;;;;;;;;;;5070477;28;21366;-65
2022/08/29 13:25:36;;;;;;;;;;;;;;;;;;5089639;28;19919;-66
2022/08/29 13:28:01;;;;;;;;;;;;;;;;;;5086635;28;20291;-65
2022/08/29 13:30:26;;;;;;;;;;;;;;;;;;5061793;28;19912;-66
2022/08/29 13:32:51;;;;;;;;;;;;;;;;;;5083078;28;19958;-66
2022/08/29 13:35:16;;;;;;;;;;;;;;;;;;5060066;28;20003;-66
2022/08/29 13:37:42;;;;;;;;;;;;;;;;;;5080772;28;19920;-66
2022/08/29 13:40:07;;;;;;;;;;;;;;;;;;5082236;28;19916;-66
2022/08/29 13:42:32;;;;;;;;;;;;;;;;;;5077302;28;19954;-65
2022/08/29 13:44:57;;;;;;;;;;;;;;;;;;5085386;28;19916;-65
2022/08/29 13:47:22;;;;;;;;;;;;;;;;;;5072927;28;19912;-65
2022/08/29 13:49:47;;;;;;;;;;;;;;;;;;5077220;28;20394;-65
2022/08/29 13:52:13;;;;;;;;;;;;;;;;;;5078716;28;19913;-65
2022/08/29 13:54:39;;;;;;;;;;;;;;;;;;5087927;28;19939;-65
2022/08/29 13:57:04;;;;;;;;;;;;;;;;;;5081427;28;20409;-66
2022/08/29 13:59:29;;;;;;;;;;;;;;;;;;5082358;28;19966;-66
2022/08/29 14:01:55;;;;;;;;;;;;;;;;;;5078295;28;19912;-66
2022/08/29 14:04:20;;;;;;;;;;;;;;;;;;5079550;28;19954;-66
2022/08/29 14:06:45;;;;;;;;;;;;;;;;;;5083893;28;19916;-66
2022/08/29 14:09:10;;;;;;;;;;;;;;;;;;5082124;28;19916;-66
2022/08/29 14:11:35;;;;;;;;;;;;;;;;;;5055638;28;19921;-65
2022/08/29 14:14:01;;;;;;;;;;;;;;;;;;5074546;28;20346;-67
2022/08/29 14:16:26;;;;;;;;;;;;;;;;;;5056577;28;19929;-67
2022/08/29 14:18:52;;;;;;;;;;;;;;;;;;5059454;28;19913;-64
2022/08/29 14:21:19;;;;;;;;;;;;;;;;;;5065719;28;19912;-65
2022/08/29 14:23:44;;;;;;;;;;;;;;;;;;5055507;28;20296;-65
2022/08/29 14:26:09;;;;;;;;;;;;;;;;;;5062950;28;19912;-65
2022/08/29 14:28:34;;;;;;;;;;;;;;;;;;5065265;28;19920;-65
2022/08/29 14:30:59;;;;;;;;;;;;;;;;;;5057790;28;19940;-66
2022/08/29 14:33:24;;;;;;;;;;;;;;;;;;5061166;28;19913;-65
2022/08/29 14:35:49;;;;;;;;;;;;;;;;;;5060135;28;20015;-65
2022/08/29 14:38:15;;;;;;;;;;;;;;;;;;5057484;28;19916;-65
2022/08/29 14:40:40;;;;;;;;;;;;;;;;;;5053561;28;19913;-65
2022/08/29 14:43:07;;;;;;;;;;;;;;;;;;5059638;28;20007;-64
2022/08/29 14:45:32;;;;;;;;;;;;;;;;;;5071778;28;20375;-65
2022/08/29 14:47:57;;;;;;;;;;;;;;;;;;5073759;28;19912;-65
2022/08/29 14:50:23;;;;;;;;;;;;;;;;;;5056103;28;20476;-65
2022/08/29 14:52:48;;;;;;;;;;;;;;;;;;5050858;28;19921;-65
2022/08/29 14:55:13;;;;;;;;;;;;;;;;;;5057705;28;19919;-65
2022/08/29 14:57:38;;;;;;;;;;;;;;;;;;5058110;28;20373;-64
2022/08/29 15:00:03;;;;;;;;;;;;;;;;;;5057728;28;19955;-65
2022/08/29 15:02:28;;;;;;;;;;;;;;;;;;5063471;28;20368;-66
2022/08/29 15:04:55;;;;;;;;;;;;;;;;;;5057501;28;19967;-66
2022/08/29 15:07:20;;;;;;;;;;;;;;;;;;5054612;28;19919;-65
2022/08/29 15:09:45;;;;;;;;;;;;;;;;;;5063278;28;19917;-66
2022/08/29 15:12:10;;;;;;;;;;;;;;;;;;5060484;28;20265;-66
2022/08/29 15:14:35;;;;;;;;;;;;;;;;;;5046894;28;19916;-66
2022/08/29 15:17:01;;;;;;;;;;;;;;;;;;5057816;28;19926;-65
2022/08/29 15:19:26;;;;;;;;;;;;;;;;;;5058312;28;19918;-67
2022/08/29 15:21:51;;;;;;;;;;;;;;;;;;5069786;28;19920;-64
2022/08/29 15:24:16;;;;;;;;;;;;;;;;;;5059022;28;19913;-65
2022/08/29 15:26:43;;;;;;;;;;;;;;;;;;5066588;28;19916;-65
2022/08/29 15:29:08;;;;;;;;;;;;;;;;;;5061315;28;20408;-64
2022/08/29 15:31:33;;;;;;;;;;;;;;;;;;5048558;28;19972;-65
2022/08/29 15:33:59;;;;;;;;;;;;;;;;;;5041062;28;19921;-65
2022/08/29 15:36:24;;;;;;;;;;;;;;;;;;5041939;28;19921;-65
2022/08/29 15:38:49;;;;;;;;;;;;;;;;;;5051077;28;20452;-65
2022/08/29 15:41:14;;;;;;;;;;;;;;;;;;5060053;28;19974;-65
2022/08/29 15:43:39;;;;;;;;;;;;;;;;;;5048381;28;19967;-66
2022/08/29 15:46:04;;;;;;;;;;;;;;;;;;5052161;28;19920;-66
2022/08/29 15:48:30;;;;;;;;;;;;;;;;;;5058620;28;19913;-66
2022/08/29 15:50:55;;;;;;;;;;;;;;;;;;5057397;28;19915;-67
2022/08/29 15:53:20;;;;;;;;;;;;;;;;;;5056033;28;19921;-65
2022/08/29 15:55:45;;;;;;;;;;;;;;;;;;5060332;28;19918;-65
2022/08/29 15:58:10;;;;;;;;;;;;;;;;;;5052708;28;20309;-66
2022/08/29 16:00:36;;;;;;;;;;;;;;;;;;5059130;28;20320;-65
2022/08/29 16:03:01;;;;;;;;;;;;;;;;;;5058957;28;19916;-65
2022/08/29 16:05:26;;;;;;;;;;;;;;;;;;5056447;28;19909;-65
2022/08/29 16:07:51;;;;;;;;;;;;;;;;;;5060064;28;19917;-65
2022/08/29 16:10:16;;;;;;;;;;;;;;;;;;5050713;28;19909;-65
2022/08/29 16:12:41;;;;;;;;;;;;;;;;;;5050792;28;19967;-64
2022/08/29 16:15:07;;;;;;;;;;;;;;;;;;5053287;28;20300;-64
2022/08/29 16:17:32;;;;;;;;;;;;;;;;;;5073667;28;20015;-65
2022/08/29 16:19:57;;;;;;;;;;;;;;;;;;5070825;28;19909;-65
2022/08/29 16:22:22;;;;;;;;;;;;;;;;;;5070962;28;19999;-65
2022/08/29 16:24:47;;;;;;;;;;;;;;;;;;5073978;28;19924;-65
2022/08/29 16:27:12;;;;;;;;;;;;;;;;;;5085790;28;20300;-66
2022/08/29 16:29:38;;;;;;;;;;;;;;;;;;5072144;28;20426;-66
2022/08/29 16:32:03;;;;;;;;;;;;;;;;;;5085863;28;20299;-66
2022/08/29 16:34:28;;;;;;;;;;;;;;;;;;5080305;28;19916;-66